Terminal Aerodrome Forecast
Issued by NWS Tulsa, OK

Home | Current Version | Previous Version | Text Only | Print | Product List | Glossary On
Versions: 1 2 3 4 5 6 7 8 9 10 11 12 13 14 15 16 17 18
000
FTUS44 KTSA 012334
TAFFSM
TAF
KFSM 012334Z 0200/0224 34008KT P6SM SCT250
     FM021200 28004KT P6SM OVC050
     FM021500 30010KT P6SM OVC025
     FM021800 28011KT P6SM OVC050=

USA.gov is the U.S. government's official web portal to all federal, state and local government web resources and services.